Terminal Aerodrome Forecast
Issued by NWS

Home | Current Version | Previous Version | Text Only | Print | Product List | Glossary On
Versions: 1 2 3 4 5 6 7 8 9 10 11 12 13 14 15 16 17 18 19 20 21 22 23 24 25 26
642
FTUS45 KTFX 211136
TAFBZN
TAF
KBZN 211136Z 2112/2218 VRB05KT 6SM -RA BR OVC030
      TEMPO 2114/2118 5SM -RA BR BKN005
     FM220100 10009KT P6SM BKN050 OVC100
     FM221200 VRB04KT P6SM FEW015 SCT025=

USA.gov is the U.S. government's official web portal to all federal, state and local government web resources and services.